Other Surface Observations
Issued by NWS Missoula, MT

Current Version | Previous Version | Text Only | Print | Product List | Glossary On
Versions: 1 2 3 4 5 6 7 8 9 10 11 12 13 14 15 16 17 18 19 20 21 22 23 24 25 26 27 28 29 30 31 32 33 34 35 36 37 38 39 40 41 42 43 44 45 46 47 48 49 50
000
SXUS55 KMSO 230643
OSOMSO
MONTANA AWOS SUMMARY
NATIONAL WEATHER SERVICE MISSOULA MT
1143 PM MST SUN JAN 22 2017

Montana AWOS Reports

LAUREL      |K6S8 230635Z AUTO 00000KT 15SM M06/M10 A2968 RMK AO1 T10551099
TWIN BRIDGES|K7S1 230635Z AUTO 15004KT 40SM M07/M11 A2967 RMK AO1 T10661110




USA.gov is the U.S. government's official web portal to all federal, state and local government web resources and services.